Contrecoeur, Canada
Current Conditions -  °F | °C
As of 12:00 PM on Saturday 25 Oct 2014 (Local Time) from CYHU Reporting Station
Scattered Clouds Scattered Clouds  
Wind Chill: 52°   Ceiling: Unl
Heat Index: 52°   Visibility: 9mi
Dew Point: 41°   Wind: 12mph
Humidity: 67%   Direction: 230°SW
Pressure: 29.64"   Gusts: NA
Location:  45.85°N, 73.23°W
Report Text: CYHU 251600Z AUTO 23010KT 9SM FEW210 SCT230 11/05 A2964 RMK SLP038
Loading
Personal Weather Stations






























Interactive Weather Map
Tropical Storm Tracking
New forecast layout! Learn more

10-Day Weather Forecast

Advertisements
Track Severe Weather on mobile